METAR Data
IDs: Format: Raw Decoded Include TAF

Data at: 1613 UTC 21 Sep 2018

KJES 211557Z AUTO 07006KT 10SM SCT029 SCT037 32/20 A3016 RMK AO2
KJES 211537Z AUTO 05005KT 10SM SCT029 32/22 A3017 RMK AO2
KJES 211517Z AUTO 08006KT 10SM CLR 31/21 A3017 RMK AO2
KJES 211459Z AUTO 08009KT 10SM SCT022 SCT043 31/22 A3017 RMK AO2
KJES 211438Z AUTO 07003KT 10SM SCT029 SCT035 BKN043 31/23 A3017 RMK AO2
KJES 211417Z AUTO 00000KT 10SM BKN029 BKN045 28/23 A3017 RMK AO2
KJES 211357Z AUTO 00000KT 7SM SCT029 28/23 A3017 RMK AO2
KJES 211337Z AUTO 07005KT 10SM SCT049 28/23 A3016 RMK AO2
KJES 211317Z AUTO 00000KT 10SM BKN049 27/23 A3016 RMK AO2
KJES 211257Z AUTO 00000KT 10SM SCT049 25/22 A3017 RMK AO2
KJES 211237Z AUTO 00000KT 10SM CLR 25/22 A3016 RMK AO2
KJES 211217Z AUTO 00000KT 5SM BR CLR 24/22 A3016 RMK AO2
KJES 211157Z AUTO 00000KT 5SM BR CLR 23/22 A3015 RMK AO2
KJES 211137Z AUTO 00000KT 4SM BR CLR 23/21 A3014 RMK AO2
KJES 211117Z AUTO 00000KT 5SM BR CLR 23/21 A3014 RMK AO2
KJES 211057Z AUTO 00000KT 7SM CLR 23/21 A3013 RMK AO2
KJES 211037Z AUTO 00000KT 7SM CLR 23/21 A3013 RMK AO2
KJES 211017Z AUTO 00000KT 10SM CLR 23/21 A3013 RMK AO2
KJES 210959Z AUTO 00000KT 10SM SCT019 23/21 A3012 RMK AO2
KJES 210937Z AUTO 00000KT 10SM BKN019 BKN029 BKN040 24/22 A3012 RMK AO2
KJES 210917Z AUTO 00000KT 10SM SCT023 BKN037 OVC065 23/21 A3012 RMK AO2
KJES 210857Z AUTO 00000KT 10SM SCT030 SCT035 BKN044 23/21 A3011 RMK AO2
KJES 210837Z AUTO 00000KT 10SM SCT024 BKN034 BKN039 23/21 A3011 RMK AO2
KJES 210817Z AUTO 00000KT 10SM SCT024 SCT034 22/20 A3011 RMK AO2
KJES 210757Z AUTO 00000KT 10SM CLR 23/21 A3011 RMK AO2
KJES 210737Z AUTO 00000KT 10SM CLR 23/21 A3011 RMK AO2
KJES 210717Z AUTO 00000KT 10SM CLR 23/21 A3011 RMK AO2
KJES 210657Z AUTO 00000KT 10SM CLR 23/21 A3011 RMK AO2
KJES 210637Z AUTO 00000KT 10SM CLR 23/21 A3011 RMK AO2
KJES 210617Z AUTO 00000KT 10SM CLR 23/21 A3012 RMK AO2
KJES 210557Z AUTO 00000KT 10SM CLR 23/21 A3013 RMK AO2
KJES 210537Z AUTO 00000KT 10SM CLR 23/21 A3013 RMK AO2
KJES 210517Z AUTO 00000KT 10SM CLR 23/21 A3013 RMK AO2
KJES 210457Z AUTO 00000KT 10SM CLR 23/21 A3013 RMK AO2
KJES 210437Z AUTO 00000KT 10SM CLR 23/21 A3014 RMK AO2
KJES 210417Z AUTO 00000KT 10SM CLR 23/21 A3014 RMK AO2
KJES 210358Z AUTO 00000KT 10SM CLR 24/21 A3014 RMK AO2
KJES 210337Z AUTO 00000KT 10SM CLR 23/21 A3014 RMK AO2
KJES 210317Z AUTO 00000KT 10SM CLR 23/21 A3013 RMK AO2
KJES 210257Z AUTO 00000KT 10SM CLR 23/21 A3014 RMK AO2
KJES 210237Z AUTO 00000KT 10SM CLR 24/21 A3014 RMK AO2
KJES 210217Z AUTO 00000KT 10SM CLR 24/21 A3013 RMK AO2
KJES 210157Z AUTO 00000KT 10SM CLR 24/21 A3013 RMK AO2
KJES 210138Z AUTO 00000KT 10SM CLR 25/21 A3013 RMK AO2
KJES 210119Z AUTO 00000KT 10SM CLR 25/21 A3012 RMK AO2
KJES 210057Z AUTO 00000KT 10SM CLR 26/21 A3011 RMK AO2
KJES 210037Z AUTO 00000KT 10SM CLR 26/21 A3010 RMK AO2
KJES 210017Z AUTO 00000KT 10SM CLR 27/21 A3009 RMK AO2
KJES 202357Z AUTO 00000KT 10SM CLR 27/21 A3009 RMK AO2
KJES 202337Z AUTO 00000KT 10SM CLR 28/21 A3008 RMK AO2
KJES 202317Z AUTO 00000KT 10SM CLR 28/20 A3008 RMK AO2
KJES 202257Z AUTO 00000KT 10SM CLR 29/20 A3007 RMK AO2
KJES 202239Z AUTO 11005KT 10SM CLR 30/20 A3007 RMK AO2
KJES 202218Z AUTO 10009KT 10SM CLR 31/20 A3006 RMK AO2
KJES 202157Z AUTO 10010KT 10SM CLR 32/21 A3006 RMK AO2
KJES 202137Z AUTO 11006KT 10SM CLR 32/21 A3007 RMK AO2
KJES 202117Z AUTO 10010KT 10SM CLR 32/21 A3006 RMK AO2
KJES 202059Z AUTO 10011KT 10SM CLR 33/20 A3006 RMK AO2
KJES 202037Z AUTO 11007KT 10SM CLR 33/21 A3006 RMK AO2
KJES 202017Z AUTO 10010G15KT 10SM SCT048 33/20 A3006 RMK AO2
KJES 201943Z AUTO 09011G14KT 10SM SCT050 33/21 A3006 RMK AO2
KJES 201858Z AUTO 09007KT 10SM SCT050 34/19 A3007 RMK AO2
KJES 201838Z AUTO 06003KT 10SM SCT050 34/19 A3008 RMK AO2
KJES 201821Z AUTO 00000KT 10SM SCT050 SCT065 33/19 A3008 RMK AO2
KJES 201803Z AUTO 00000KT 10SM SCT050 SCT065 33/18 A3009 RMK AO2
KJES 201722Z AUTO 00000KT 10SM SCT050 34/17 A3010 RMK AO2
KJES 201657Z AUTO 00000KT 10SM CLR 33/17 A3011 RMK AO2
KJES 201638Z AUTO 00000KT 10SM SCT038 BKN046 SCT060 33/17 A3012 RMK AO2
KJES 201459Z AUTO 00000KT 10SM CLR 31/22 A3013 RMK AO2
KJES 201440Z AUTO 00000KT 10SM CLR 31/22 A3013 RMK AO2
KJES 201358Z AUTO 00000KT 10SM CLR 29/23 A3011 RMK AO2
KJES 201338Z AUTO 00000KT 10SM CLR 28/23 A3011 RMK AO2
KJES 201237Z AUTO 00000KT 5SM BR CLR 24/22 A3009 RMK AO2
KJES 201218Z AUTO 00000KT 5SM BR CLR 23/21 A3008 RMK AO2
KJES 201157Z AUTO 00000KT 7SM CLR 22/20 A3007 RMK AO2
KJES 201138Z AUTO 00000KT 7SM CLR 22/19 A3007 RMK AO2
KJES 201118Z AUTO 00000KT 10SM CLR 21/19 A3006 RMK AO2
KJES 201057Z AUTO 00000KT 10SM CLR 21/19 A3005 RMK AO2
KJES 201039Z AUTO 00000KT 5SM BR CLR 21/19 A3004 RMK AO2
KJES 200938Z AUTO 00000KT 10SM SCT060 21/19 A3002 RMK AO2
KJES 200919Z AUTO 00000KT 10SM CLR 22/20 A3001 RMK AO2
KJES 200900Z AUTO 00000KT 5SM BR CLR 22/20 A3001 RMK AO2
KJES 200838Z AUTO 00000KT 10SM CLR 23/21 A3000 RMK AO2
KJES 200719Z AUTO 00000KT 10SM SCT065 23/21 A3001 RMK AO2
KJES 200657Z AUTO 00000KT 10SM SCT065 23/21 A3001 RMK AO2
KJES 200637Z AUTO 00000KT 10SM CLR 23/21 A3001 RMK AO2
KJES 200617Z AUTO 00000KT 10SM CLR 24/22 A3002 RMK AO2
KJES 200559Z AUTO 00000KT 10SM SCT065 24/22 A3002 RMK AO2
KJES 200540Z AUTO 00000KT 7SM SCT065 24/22 A3002 RMK AO2
KJES 200517Z AUTO 00000KT 10SM CLR 24/21 A3002 RMK AO2
KJES 200457Z AUTO 00000KT 10SM CLR 24/22 A3003 RMK AO2
KJES 200438Z AUTO 00000KT 10SM CLR 24/22 A3002 RMK AO2
KJES 200418Z AUTO 00000KT 10SM CLR 24/22 A3002 RMK AO2